Rm Thomas — FNMP — position and weather

sailwx.info

Track history (hours):
 
Tides and Currents Weather Stations Pressure Air Temp Water Temp Dewpoint Dewpoint Depression Visibility Wind Speed Wind Dir Waves Ship Positions

Rm Thomas

Last reported at 2016-Dec-09 12:33 UTC. Time now 2016-Dec-10 07:06 UTC.
Position N 44°53' W 000°32'.

Length 25 m; draft 4 m.

Type: Tug. MMSI: 228278700.

Date/timePositionNaut miles runAvg speedWind from/ knotsBaromVisibWave heightAir tempDewpointWater temp
2016-Dec-09 12:33N 44°53' W 000°32'0 0.0
2016-Dec-09 11:32N 44°53' W 000°32'0 0.0
2016-Dec-09 10:33N 44°53' W 000°32'0 0.0
2016-Dec-09 09:31N 44°53' W 000°32'0 0.0
2016-Dec-09 08:27N 44°53' W 000°32'0 0.0
2016-Dec-09 07:33N 44°53' W 000°32'0 0.0
2016-Dec-09 06:33N 44°53' W 000°32'0 0.0
2016-Dec-09 05:33N 44°53' W 000°32'0 0.0
2016-Dec-09 04:32N 44°53' W 000°32'0 0.0
2016-Dec-09 03:33N 44°53' W 000°32'7 7.0
2016-Dec-09 02:33N 45°00' W 000°34'0 0.1
2016-Dec-09 01:33N 45°00' W 000°34'1 1.1
2016-Dec-09 00:33N 45°01' W 000°35'6 5.8
2016-Dec-08 23:33N 44°55' W 000°33'2 2.1
2016-Dec-08 22:32N 44°53' W 000°32'0 0.0
2016-Dec-08 20:33N 44°53' W 000°32'0 0.0
2016-Dec-08 19:33N 44°53' W 000°32'1 0.0
2016-Dec-06 23:07N 44°55' W 000°32'  
2016-Dec-04 12:24N 45°00' W 000°34'0 0.0
2016-Dec-04 11:17N 45°00' W 000°34'0 0.0
2016-Dec-04 10:26N 45°00' W 000°34'0 0.0
2016-Dec-04 09:33N 45°00' W 000°34'0 0.0
2016-Dec-04 08:16N 45°00' W 000°34'0 0.0
2016-Dec-04 07:25N 45°00' W 000°34'0 0.4
2016-Dec-04 06:31N 44°60' W 000°33'0 0.3
2016-Dec-04 05:25N 45°00' W 000°34'0 0.0
2016-Dec-03 19:32N 45°00' W 000°34'1 1.3
2016-Dec-03 18:25N 45°01' W 000°36'4 4.5
2016-Dec-03 17:33N 44°58' W 000°32'5 0.5
2016-Dec-03 07:33N 44°53' W 000°32'0 0.0
2016-Dec-03 06:32N 44°53' W 000°32'0 0.0
2016-Dec-02 23:33N 44°53' W 000°32'0 0.0
2016-Dec-02 11:33N 44°53' W 000°32'1 1.4
2016-Dec-02 10:33N 44°55' W 000°32'0 0.0
2016-Dec-02 09:33N 44°55' W 000°32'0 0.0
2016-Dec-02 08:33N 44°55' W 000°32'2 1.8
2016-Dec-02 07:33N 44°56' W 000°33'3 3.2
2016-Dec-02 06:33N 44°53' W 000°32'0 0.0
2016-Dec-02 05:33N 44°53' W 000°32'0 0.0
2016-Dec-02 04:33N 44°53' W 000°32'0 0.0
2016-Dec-02 03:33N 44°53' W 000°32'2 0.2
2016-Dec-01 19:25N 44°55' W 000°33'0 0.1
2016-Dec-01 18:29N 44°55' W 000°33'  
Track history (hours):
 
Tides and Currents Weather Stations Pressure Air Temp Water Temp Dewpoint Dewpoint Depression Visibility Wind Speed Wind Dir Waves Ship Positions

Rm Thomas

Last reported at 2016-Dec-09 12:33 UTC. Time now 2016-Dec-10 07:06 UTC.
Position N 44°53' W 000°32'.

Length 25 m; draft 4 m.

Type: Tug. MMSI: 228278700.

Date/timePositionNaut miles runAvg speedWind from/ knotsBaromVisibWave heightAir tempDewpointWater temp
2016-Dec-09 12:33N 44°53' W 000°32'0 0.0
2016-Dec-09 11:32N 44°53' W 000°32'0 0.0
2016-Dec-09 10:33N 44°53' W 000°32'0 0.0
2016-Dec-09 09:31N 44°53' W 000°32'0 0.0
2016-Dec-09 08:27N 44°53' W 000°32'0 0.0
2016-Dec-09 07:33N 44°53' W 000°32'0 0.0
2016-Dec-09 06:33N 44°53' W 000°32'0 0.0
2016-Dec-09 05:33N 44°53' W 000°32'0 0.0
2016-Dec-09 04:32N 44°53' W 000°32'0 0.0
2016-Dec-09 03:33N 44°53' W 000°32'7 7.0
2016-Dec-09 02:33N 45°00' W 000°34'0 0.1
2016-Dec-09 01:33N 45°00' W 000°34'1 1.1
2016-Dec-09 00:33N 45°01' W 000°35'6 5.8
2016-Dec-08 23:33N 44°55' W 000°33'2 2.1
2016-Dec-08 22:32N 44°53' W 000°32'0 0.0
2016-Dec-08 20:33N 44°53' W 000°32'0 0.0
2016-Dec-08 19:33N 44°53' W 000°32'1 0.0
2016-Dec-06 23:07N 44°55' W 000°32'  
2016-Dec-04 12:24N 45°00' W 000°34'0 0.0
2016-Dec-04 11:17N 45°00' W 000°34'0 0.0
2016-Dec-04 10:26N 45°00' W 000°34'0 0.0
2016-Dec-04 09:33N 45°00' W 000°34'0 0.0
2016-Dec-04 08:16N 45°00' W 000°34'0 0.0
2016-Dec-04 07:25N 45°00' W 000°34'0 0.4
2016-Dec-04 06:31N 44°60' W 000°33'0 0.3
2016-Dec-04 05:25N 45°00' W 000°34'0 0.0
2016-Dec-03 19:32N 45°00' W 000°34'1 1.3
2016-Dec-03 18:25N 45°01' W 000°36'4 4.5
2016-Dec-03 17:33N 44°58' W 000°32'5 0.5
2016-Dec-03 07:33N 44°53' W 000°32'0 0.0
2016-Dec-03 06:32N 44°53' W 000°32'0 0.0
2016-Dec-02 23:33N 44°53' W 000°32'0 0.0
2016-Dec-02 11:33N 44°53' W 000°32'1 1.4
2016-Dec-02 10:33N 44°55' W 000°32'0 0.0
2016-Dec-02 09:33N 44°55' W 000°32'0 0.0
2016-Dec-02 08:33N 44°55' W 000°32'2 1.8
2016-Dec-02 07:33N 44°56' W 000°33'3 3.2
2016-Dec-02 06:33N 44°53' W 000°32'0 0.0
2016-Dec-02 05:33N 44°53' W 000°32'0 0.0
2016-Dec-02 04:33N 44°53' W 000°32'0 0.0
2016-Dec-02 03:33N 44°53' W 000°32'2 0.2
2016-Dec-01 19:25N 44°55' W 000°33'0 0.1
2016-Dec-01 18:29N 44°55' W 000°33'  

Dump ship's entire track history